Surface observations / UK / EGBB

Quebec | Canada | USA | France | UK | Europe | Elsewhere

Display: Info & Location for EGBB | Help decoding METAR

EGBB BIRMINGHAM AIRPORT -- UK
Raw surface observations for station EGBB
EGBB 042150Z 06005KT CAVOK 01/01 Q1024=
EGBB 042120Z 02004KT CAVOK 00/00 Q1024=
EGBB 042050Z 05004KT CAVOK 02/01 Q1024=
EGBB 042020Z 08005KT CAVOK 02/01 Q1024=
EGBB 041950Z 07005KT CAVOK 02/01 Q1024=
EGBB 041920Z 08005KT CAVOK 03/01 Q1024=
EGBB 041850Z 08006KT CAVOK 03/02 Q1024=
EGBB 041820Z 08007KT 060V120 CAVOK 03/02 Q1024=
EGBB 041750Z 07008KT CAVOK 04/02 Q1024=
EGBB 041720Z 07007G20KT CAVOK 04/02 Q1024=
EGBB 041650Z 07006KT 040V100 CAVOK 04/02 Q1024=
EGBB 041620Z VRB06KT CAVOK 04/02 Q1023=
EGBB 041550Z 08007KT 340V120 CAVOK 04/02 Q1023=
EGBB 041520Z 09008KT CAVOK 05/02 Q1023=
EGBB 041450Z 08009KT 040V110 CAVOK 05/02 Q1023=
EGBB 041420Z 08009KT CAVOK 06/02 Q1023=
EGBB 041350Z 08008G21KT 060V140 CAVOK 06/02 Q1024=
EGBB 041320Z 10010KT CAVOK 06/02 Q1024=
EGBB 041250Z 09010KT 050V120 CAVOK 06/03 Q1024=
EGBB 041220Z 09009KT CAVOK 05/03 Q1024=
EGBB 041150Z 10010KT CAVOK 05/03 Q1024=
EGBB 041120Z 09009KT 030V110 9999 FEW002 05/02 Q1025=
EGBB 041050Z 08007KT CAVOK 04/02 Q1025=
EGBB 041020Z 08006KT CAVOK 04/02 Q1025=
EGBB 040950Z 07006KT 050V110 CAVOK 03/02 Q1025=
EGBB 040920Z VRB03KT CAVOK 01/01 Q1025=
EGBB 040850Z 36003KT CAVOK 00/00 Q1025=
EGBB 040820Z 01003KT CAVOK M00/M00 Q1025=
EGBB 040750Z 03004KT CAVOK M00/M00 Q1025=
EGBB 040720Z VRB03KT CAVOK 00/M00 Q1025=
EGBB 040650Z 35003KT CAVOK 00/M00 Q1025=
EGBB 040620Z VRB03KT CAVOK M00/M00 Q1025=
EGBB 040550Z 33002KT 9999 SCT030 M00/M01 Q1025=
EGBB 040520Z 32003KT 9999 FEW035 00/00 Q1025=
EGBB 040450Z VRB02KT 9999 FEW035 00/00 Q1025=
EGBB 040420Z 35003KT CAVOK 01/00 Q1025=
EGBB 040350Z VRB03KT CAVOK 01/00 Q1025=
EGBB 040320Z 04003KT CAVOK 01/00 Q1025=
EGBB 040250Z 06003KT CAVOK 01/00 Q1025=
EGBB 040220Z 05004KT CAVOK 00/00 Q1025=
EGBB 040150Z 04004KT 010V090 CAVOK 00/00 Q1025=
EGBB 040120Z 02003KT CAVOK 00/00 Q1025=
EGBB 040050Z VRB03KT CAVOK 00/00 Q1025=
EGBB 040020Z 05004KT CAVOK 01/01 Q1025=
EGBB 032350Z 07004KT CAVOK 02/01 Q1025=
EGBB 032320Z 06004KT CAVOK 02/01 Q1025=
EGBB 032250Z VRB03KT CAVOK 02/01 Q1025=
EGBB 032220Z 05004KT CAVOK 02/01 Q1025=